Latest Weather Observations for Sydney - Observatory Hill

IDN60801

Issued at 10:03 am EST Sunday 28 August 2016 (issued every 30 minutes, with the page automatically refreshed every 10 minutes)

About weather observations | Map of weather stations | Latest weather observations for NSW | Other Formats
Station Details ID: 066062 Name: SYDNEY (OBSERVATORY HILL) Lat: -33.86 Lon: 151.21 Height: 39.0 m
Data from the previous 72 hours. | See also: Recent months at Sydney - Observatory Hill

* Apparent temperature (App Temp) for Sydney - Observatory Hill is calculated using temperature observations collected at Sydney - Observatory Hill and wind observations collected at Fort Denison, as wind observations are not currently provided for Sydney - Observatory Hill.

Date/Time
EST
Temp
°C
App
Temp
°C
Dew
Point
°C
Rel
Hum
%
Delta-T
°C
Wind Press
QNH
hPa
Press
MSL
hPa
Rain since
9am
mm
Dir  Spd
km/h
Gust
km/h
Spd
kts
Gust
kts
28/10:00am 13.9 7.9 3.1 48 4.8 W 24 - 13 - 1022.8 1022.8 0.0
28/09:30am 12.9 6.8 2.7 50 4.5 W 24 - 13 - 1022.8 1022.8 0.0
28/09:00am 12.2 6.4 2.1 50 4.3 W 22 - 12 - 1022.9 1022.9 0.0
28/08:30am 12.0 7.1 1.9 50 4.3 W 17 - 9 - 1023.0 1023.0 0.0
28/08:00am 10.4 4.7 3.0 60 3.2 W 22 - 12 - 1023.0 1023.0 0.0
28/07:30am 9.3 3.9 2.2 61 3.0 W 20 - 11 - 1022.9 1022.9 0.0
28/07:00am 8.5 3.6 2.1 64 2.7 WNW 17 - 9 - 1022.7 1022.7 0.0
28/06:30am 8.9 3.7 2.5 64 2.7 W 19 - 10 - 1022.0 1022.0 0.0
28/06:00am 8.8 3.0 2.2 63 2.8 W 22 - 12 - 1021.6 1021.6 0.0
28/05:30am 9.0 3.8 2.3 63 2.8 W 19 - 10 - 1021.7 1021.7 0.0
28/05:00am 9.3 3.0 1.7 59 3.1 W 24 - 13 - 1021.7 1021.7 0.0
28/04:30am 9.6 3.3 1.8 58 3.3 W 24 - 13 - 1021.3 1021.3 0.0
28/04:00am 9.1 3.9 2.4 63 2.8 W 19 - 10 - 1021.1 1021.1 0.0
28/03:30am 8.8 4.1 3.4 69 2.3 W 17 - 9 - 1021.0 1021.0 0.0
28/03:00am 9.1 4.5 3.5 68 2.4 WNW 17 - 9 - 1021.0 1021.0 0.0
28/02:30am 9.4 5.4 2.7 63 2.9 WNW 13 - 7 - 1021.2 1021.2 0.0
28/02:00am 9.6 5.2 2.9 63 2.9 W 15 - 8 - 1021.5 1021.5 0.0
28/01:30am 9.8 4.7 2.9 62 3.0 W 19 - 10 - 1021.8 1021.8 0.0
28/01:00am 10.1 4.8 2.9 61 3.1 W 20 - 11 - 1021.8 1021.8 0.0
28/12:30am 10.9 5.7 2.7 57 3.5 W 19 - 10 - 1021.9 1021.9 0.0
28/12:00am 11.4 7.1 3.2 57 3.6 W 15 - 8 - 1021.8 1021.8 0.0
 
Date/Time
EST
Temp
°C
App
Temp
°C
Dew
Point
°C
Rel
Hum
%
Delta-T
°C
Wind Press
QNH
hPa
Press
MSL
hPa
Rain since
9am
mm
Dir  Spd
km/h
Gust
km/h
Spd
kts
Gust
kts
27/11:30pm 11.4 7.6 5.7 68 2.6 W 15 - 8 - 1021.7 1021.7 0.0
27/11:00pm 11.5 7.6 7.0 74 2.1 WNW 17 - 9 - 1021.8 1021.8 0.0
27/10:30pm 11.8 8.3 7.1 73 2.3 W 15 - 8 - 1021.6 1021.6 0.0
27/10:00pm 12.1 9.3 6.8 70 2.5 WNW 11 - 6 - 1021.6 1021.6 0.0
27/09:30pm 12.7 10.0 7.2 69 2.7 NNW 11 - 6 - 1021.3 1021.3 0.0
27/09:00pm 13.1 11.3 7.1 67 2.9 NNW 6 - 3 - 1021.2 1021.2 0.0
27/08:30pm 14.0 10.9 7.3 64 3.3 N 13 - 7 - 1021.4 1021.4 0.0
27/08:00pm 14.7 11.3 7.7 63 3.5 N 15 - 8 - 1021.2 1021.2 0.0
27/07:30pm 15.1 11.3 7.6 61 3.7 N 17 - 9 - 1021.0 1021.0 0.0
27/07:00pm 15.4 11.9 7.4 59 4.0 N 15 - 8 - 1020.6 1020.6 0.0
27/06:30pm 15.6 11.8 7.4 58 4.1 NNE 17 - 9 - 1020.4 1020.4 0.0
27/06:00pm 15.5 12.0 7.3 58 4.0 NNE 15 - 8 - 1020.5 1020.5 0.0
27/05:30pm 16.1 12.4 6.5 53 4.7 NNE 15 - 8 - 1020.3 1020.3 0.0
27/05:00pm 16.6 12.9 6.4 51 5.0 NE 15 - 8 - 1020.2 1020.2 0.0
27/04:30pm 17.0 13.0 6.5 50 5.2 ENE 17 - 9 - 1020.1 1020.1 0.0
27/04:00pm 17.4 13.3 6.0 47 5.6 E 17 - 9 - 1020.0 1020.0 0.0
27/03:30pm 17.6 14.0 6.8 49 5.4 ENE 15 - 8 - 1020.1 1020.1 0.0
27/03:00pm 17.7 13.9 5.6 45 5.9 ENE 15 - 8 - 1020.3 1020.3 0.0
27/02:30pm 17.7 13.3 4.6 42 6.2 ENE 17 - 9 - 1020.6 1020.6 0.0
27/02:00pm 19.5 15.2 1.0 29 8.3 ENE 13 - 7 - 1020.6 1020.6 0.0
27/01:30pm 19.0 16.6 2.4 33 7.6 SW 4 - 2 - 1020.9 1020.9 0.0
27/01:00pm 18.3 15.1 0.9 31 7.7 W 7 - 4 - 1021.4 1021.4 0.0
27/12:30pm 18.2 15.3 2.5 35 7.2 W 7 - 4 - 1022.1 1022.1 0.0
27/12:00pm 17.2 13.2 2.8 38 6.6 WNW 13 - 7 - 1022.7 1022.7 0.0
27/11:30am 16.3 12.0 3.4 42 5.9 W 15 - 8 - 1023.0 1023.0 0.0
27/11:00am 14.8 9.7 3.0 45 5.3 WNW 19 - 10 - 1023.3 1023.3 0.0
27/10:30am 14.1 8.9 2.7 46 5.1 WNW 19 - 10 - 1023.4 1023.4 0.0
27/10:00am 13.4 7.5 2.0 46 4.9 W 22 - 12 - 1023.2 1023.2 0.0
27/09:30am 12.3 6.6 2.7 52 4.2 W 22 - 12 - 1023.4 1023.4 0.0
27/09:00am 11.3 5.3 3.1 57 3.6 W 24 - 13 - 1023.6 1023.6 1.4
27/08:30am 10.7 4.9 2.3 56 3.6 W 22 - 12 - 1023.4 1023.4 1.4
27/08:00am 10.5 4.8 2.8 59 3.3 W 22 - 12 - 1023.4 1023.4 1.4
27/07:30am 9.2 3.1 2.8 64 2.7 W 24 - 13 - 1023.1 1023.1 1.4
27/07:00am 7.9 1.4 2.8 70 2.1 W 26 - 14 - 1022.9 1022.9 1.4
27/06:30am 7.5 1.0 2.6 71 2.0 W 26 - 14 - 1022.8 1022.8 1.4
27/06:00am 7.6 1.1 2.5 70 2.1 W 26 - 14 - 1022.4 1022.4 1.4
27/05:30am 8.0 1.5 2.7 69 2.2 W 26 - 14 - 1022.1 1022.1 1.4
27/05:00am 8.3 2.2 3.0 69 2.2 W 24 - 13 - 1021.9 1021.9 1.4
27/04:30am 8.5 2.8 2.9 68 2.4 W 22 - 12 - 1021.7 1021.7 1.4
27/04:00am 9.0 2.9 2.8 65 2.6 W 24 - 13 - 1021.6 1021.6 1.4
27/03:30am 9.2 3.1 3.0 65 2.7 W 24 - 13 - 1021.6 1021.6 1.4
27/03:00am 9.6 3.7 4.0 68 2.5 W 24 - 13 - 1021.5 1021.5 1.4
27/02:30am 10.0 5.6 6.5 79 1.6 W 19 - 10 - 1021.6 1021.6 1.4
27/02:00am 10.3 6.0 6.8 79 1.6 W 19 - 10 - 1021.5 1021.5 1.4
27/01:30am 10.9 7.2 7.8 81 1.5 WNW 17 - 9 - 1021.5 1021.5 1.4
27/01:00am 11.3 9.5 7.8 79 1.7 SW 7 - 4 - 1021.7 1021.7 1.4
27/12:30am 11.0 8.0 7.5 79 1.7 W 13 - 7 - 1021.9 1021.9 1.4
27/12:00am 10.9 9.0 7.6 80 1.6 WNW 7 - 4 - 1021.8 1021.8 1.4
 
Date/Time
EST
Temp
°C
App
Temp
°C
Dew
Point
°C
Rel
Hum
%
Delta-T
°C
Wind Press
QNH
hPa
Press
MSL
hPa
Rain since
9am
mm
Dir  Spd
km/h
Gust
km/h
Spd
kts
Gust
kts
26/11:30pm 10.8 9.1 7.7 81 1.5 NW 6 - 3 - 1021.7 1021.7 1.4
26/11:00pm 11.0 9.3 7.7 80 1.6 NNW 6 - 3 - 1021.6 1021.6 1.4
26/10:30pm 11.4 9.3 8.1 80 1.6 WNW 9 - 5 - 1021.4 1021.4 1.4
26/10:00pm 12.0 11.1 7.9 76 2.0 NNE 2 - 1 - 1021.2 1021.2 1.2
26/09:30pm 12.1 8.6 7.0 71 2.4 SSE 15 - 8 - 1021.4 1021.4 1.0
26/09:00pm 12.4 10.0 6.9 69 2.6 SSW 9 - 5 - 1021.0 1021.0 0.2
26/08:30pm 12.4 8.0 6.7 68 2.7 S 19 - 10 - 1020.8 1020.8 0.2
26/08:00pm 13.1 7.0 6.5 64 3.1 SSE 28 - 15 - 1020.4 1020.4 0.0
26/07:30pm 14.0 9.7 6.8 62 3.5 SSE 19 - 10 - 1020.2 1020.2 0.0
26/07:00pm 13.4 8.7 5.1 57 3.9 SSW 19 - 10 - 1020.0 1020.0 0.0
26/06:30pm 13.7 8.6 6.1 60 3.6 S 22 - 12 - 1019.4 1019.5 0.0
26/06:00pm 14.2 9.2 6.6 60 3.7 S 22 - 12 - 1019.0 1019.0 0.0
26/05:30pm 14.2 10.1 6.1 58 3.9 S 17 - 9 - 1018.8 1018.8 0.0
26/05:00pm 14.5 10.3 5.8 56 4.1 S 17 - 9 - 1018.5 1018.5 0.0
26/04:30pm 14.7 10.0 5.2 53 4.5 SSE 19 - 10 - 1018.3 1018.3 0.0
26/04:00pm 14.7 10.0 5.2 53 4.5 S 19 - 10 - 1018.1 1018.1 0.0
26/03:30pm 15.6 10.3 5.2 50 4.9 S 22 - 12 - 1017.7 1017.7 0.0
26/03:00pm 16.4 11.7 6.0 50 5.0 S 20 - 11 - 1017.6 1017.6 0.0
26/02:30pm 16.4 10.8 5.4 48 5.3 S 24 - 13 - 1017.5 1017.5 0.0
26/02:00pm 16.7 11.8 5.0 46 5.6 S 20 - 11 - 1017.6 1017.6 0.0
26/01:30pm 16.3 10.8 4.0 44 5.7 S 22 - 12 - 1017.6 1017.6 0.0
26/01:00pm 17.1 11.7 4.4 43 6.0 SSW 22 - 12 - 1017.7 1017.7 0.0
26/12:30pm 16.3 11.4 5.0 47 5.4 SSW 20 - 11 - 1018.1 1018.1 0.0
26/12:00pm 14.2 9.2 4.5 52 4.5 SSW 20 - 11 - 1018.6 1018.6 0.0
26/11:30am 13.6 8.1 4.2 53 4.3 SW 22 - 12 - 1018.7 1018.7 0.0
26/11:00am 14.3 9.1 3.7 49 4.8 SSW 20 - 11 - 1018.8 1018.8 0.0
26/10:30am 13.6 8.4 3.7 51 4.5 SSW 20 - 11 - 1018.8 1018.8 0.0
26/10:00am 12.3 7.6 3.3 54 4.0 W 17 - 9 - 1018.6 1018.6 0.0
26/09:30am 11.3 6.0 2.9 56 3.7 W 20 - 11 - 1018.6 1018.6 0.0
26/09:00am 10.4 5.0 2.3 57 3.4 W 20 - 11 - 1018.7 1018.7 0.0
26/08:30am 10.4 4.5 1.8 55 3.6 W 22 - 12 - 1018.3 1018.3 0.0
26/08:00am 9.9 3.3 2.0 58 3.3 W 26 - 14 - 1018.2 1018.2 0.0
26/07:30am 8.0 0.4 2.9 70 2.2 W 32 - 17 - 1018.2 1018.2 0.0
26/07:00am 7.5 1.1 3.0 73 1.9 W 26 - 14 - 1018.2 1018.2 0.0
26/06:30am 7.4 1.7 2.9 73 1.9 W 22 - 12 - 1017.7 1017.7 0.0
26/06:00am 7.7 2.6 3.0 72 2.0 WSW 19 - 10 - 1017.3 1017.3 0.0
26/05:30am 7.6 1.5 2.7 71 2.1 W 24 - 13 - 1016.8 1016.8 0.0
26/05:00am 7.9 2.2 2.6 69 2.2 W 22 - 12 - 1016.7 1016.7 0.0
26/04:30am 8.1 2.7 2.6 68 2.3 W 20 - 11 - 1016.3 1016.3 0.0
26/04:00am 8.2 2.8 2.7 68 2.3 W 20 - 11 - 1015.9 1015.9 0.0
26/03:30am 8.0 2.8 2.7 69 2.2 W 19 - 10 - 1015.8 1015.8 0.0
26/03:00am 8.5 3.7 2.5 66 2.5 W 17 - 9 - 1015.8 1015.8 0.0
26/02:30am 9.0 3.8 2.6 64 2.7 WSW 19 - 10 - 1015.7 1015.7 0.0
26/02:00am 9.4 4.6 2.5 62 2.9 WSW 17 - 9 - 1015.8 1015.8 0.0
26/01:30am 9.5 4.0 2.1 60 3.1 W 20 - 11 - 1015.7 1015.7 0.0
26/01:00am 9.7 5.1 1.8 58 3.3 W 15 - 8 - 1015.8 1015.8 0.0
26/12:30am 9.8 5.6 1.5 56 3.5 WSW 13 - 7 - 1015.7 1015.7 0.0
26/12:00am 10.2 6.3 1.1 53 3.8 WSW 11 - 6 - 1015.5 1015.5 0.0
 
Date/Time
EST
Temp
°C
App
Temp
°C
Dew
Point
°C
Rel
Hum
%
Delta-T
°C
Wind Press
QNH
hPa
Press
MSL
hPa
Rain since
9am
mm
Dir  Spd
km/h
Gust
km/h
Spd
kts
Gust
kts
25/11:30pm 10.6 4.6 1.2 52 3.9 W 22 - 12 - 1015.2 1015.2 0.0
25/11:00pm 10.8 4.8 1.1 51 4.0 WSW 22 - 12 - 1014.9 1014.9 0.0
25/10:30pm 11.1 5.5 1.1 50 4.2 W 20 - 11 - 1014.7 1014.7 0.0
25/10:00pm 11.4 6.4 1.6 51 4.1 W 17 - 9 - 1014.6 1014.6 0.0
25/09:30pm 11.9 6.4 1.8 50 4.3 W 20 - 11 - 1014.4 1014.4 0.0
25/09:00pm 12.2 7.6 3.9 57 3.7 W 17 - 9 - 1014.2 1014.2 0.0
25/08:30pm 11.8 8.2 6.9 72 2.3 W 15 - 8 - 1014.0 1014.0 0.0
25/08:00pm 11.8 9.9 7.5 75 2.1 NW 7 - 4 - 1013.8 1013.8 0.0
25/07:30pm 12.4 10.8 6.5 67 2.8 NNW 4 - 2 - 1013.5 1013.5 0.0
25/07:00pm 13.0 11.7 6.1 63 3.3 WSW 2 - 1 - 1013.2 1013.2 0.0
25/06:30pm 13.9 12.1 5.5 57 4.0 SSW 4 - 2 - 1012.9 1012.9 0.0
25/06:00pm 14.1 11.9 5.2 55 4.2 SSW 6 - 3 - 1012.5 1012.5 0.0
25/05:30pm 14.4 12.1 4.7 52 4.5 S 6 - 3 - 1012.0 1012.0 0.0
25/05:00pm 14.4 12.0 5.2 54 4.3 SSE 7 - 4 - 1011.6 1011.6 0.0
25/04:30pm 14.9 10.9 5.1 52 4.6 SSE 15 - 8 - 1011.1 1011.1 0.0
25/04:00pm 15.3 11.6 4.4 48 5.1 S 13 - 7 - 1010.8 1010.8 0.0
25/03:30pm 16.1 12.5 4.8 47 5.3 SSE 13 - 7 - 1010.7 1010.7 0.0
25/03:00pm 15.7 11.7 4.7 48 5.2 S 15 - 8 - 1010.6 1010.6 0.0
25/02:30pm 16.7 12.3 4.7 45 5.7 SSE 17 - 9 - 1010.4 1010.4 0.0
25/02:00pm 16.3 11.6 3.0 41 6.1 S 17 - 9 - 1010.3 1010.3 0.0
25/01:30pm 16.9 13.2 4.3 43 5.9 SW 13 - 7 - 1010.0 1010.0 0.0
25/01:00pm 15.3 10.5 2.8 43 5.6 SW 17 - 9 - 1009.9 1009.9 0.0
25/12:30pm 16.0 10.3 3.1 42 5.9 WSW 22 - 12 - 1010.2 1010.2 0.0
25/12:00pm 15.6 10.2 2.7 42 5.8 SW 20 - 11 - 1010.3 1010.3 0.0
25/11:30am 14.5 8.2 3.9 49 4.9 SW 26 - 14 - 1010.5 1010.5 0.0
25/11:00am 14.0 9.3 3.2 48 4.9 WSW 17 - 9 - 1010.3 1010.3 0.0
25/10:30am 13.1 7.4 5.0 58 3.8 WSW 24 - 13 - 1010.5 1010.5 0.0

Other Formats:

Comma delimited format used in spreadsheet applications
http://www.bom.gov.au/fwo/IDN60801/IDN60801.94768.axf

JavaScript Object Notation format (JSON) in row-major order
http://www.bom.gov.au/fwo/IDN60801/IDN60801.94768.json